sensor_id;sensor_type;location;lat;lon;timestamp;pressure;altitude;pressure_sealevel;temperature;humidity
35507;BME280;36461;52.018;21.036;2023-06-10T00:00:08;100270.30;;;18.81;70.68
35507;BME280;36461;52.018;21.036;2023-06-10T00:02:59;100269.17;;;18.79;70.27
35507;BME280;36461;52.018;21.036;2023-06-10T00:05:28;100261.55;;;18.77;70.27
35507;BME280;36461;52.018;21.036;2023-06-10T00:07:59;100260.73;;;18.77;70.10
35507;BME280;36461;52.018;21.036;2023-06-10T00:10:27;100258.98;;;18.77;70.09
35507;BME280;36461;52.018;21.036;2023-06-10T00:12:56;100257.34;;;18.75;70.20
35507;BME280;36461;52.018;21.036;2023-06-10T00:15:24;100260.53;;;18.74;70.28
35507;BME280;36461;52.018;21.036;2023-06-10T00:17:53;100260.91;;;18.74;70.24
35507;BME280;36461;52.018;21.036;2023-06-10T00:20:22;100259.76;;;18.73;70.31
35507;BME280;36461;52.018;21.036;2023-06-10T00:22:53;100256.95;;;18.70;70.13
35507;BME280;36461;52.018;21.036;2023-06-10T00:25:22;100258.30;;;18.69;70.25
35507;BME280;36461;52.018;21.036;2023-06-10T00:27:51;100256.16;;;18.67;70.03
35507;BME280;36461;52.018;21.036;2023-06-10T00:30:19;100258.09;;;18.64;70.02
35507;BME280;36461;52.018;21.036;2023-06-10T00:32:48;100258.38;;;18.63;69.88
35507;BME280;36461;52.018;21.036;2023-06-10T00:35:16;100254.92;;;18.62;69.87
35507;BME280;36461;52.018;21.036;2023-06-10T00:37:45;100254.84;;;18.63;69.78
35507;BME280;36461;52.018;21.036;2023-06-10T00:40:13;100255.33;;;18.64;69.69
35507;BME280;36461;52.018;21.036;2023-06-10T00:42:41;100257.09;;;18.64;69.68
35507;BME280;36461;52.018;21.036;2023-06-10T00:45:10;100252.92;;;18.63;69.76
35507;BME280;36461;52.018;21.036;2023-06-10T00:47:39;100251.51;;;18.60;69.70
35507;BME280;36461;52.018;21.036;2023-06-10T00:50:09;100250.52;;;18.57;69.85
35507;BME280;36461;52.018;21.036;2023-06-10T00:52:38;100250.16;;;18.54;69.84
35507;BME280;36461;52.018;21.036;2023-06-10T00:55:09;100254.38;;;18.52;69.87
35507;BME280;36461;52.018;21.036;2023-06-10T00:57:38;100259.18;;;18.48;69.84
35507;BME280;36461;52.018;21.036;2023-06-10T01:00:07;100261.13;;;18.45;69.89
35507;BME280;36461;52.018;21.036;2023-06-10T01:02:37;100260.02;;;18.43;69.87
35507;BME280;36461;52.018;21.036;2023-06-10T01:05:06;100264.17;;;18.41;69.95
35507;BME280;36461;52.018;21.036;2023-06-10T01:07:45;100257.84;;;18.39;70.11
35507;BME280;36461;52.018;21.036;2023-06-10T01:10:35;100260.38;;;18.35;70.23
35507;BME280;36461;52.018;21.036;2023-06-10T01:13:10;100260.71;;;18.30;70.23
35507;BME280;36461;52.018;21.036;2023-06-10T01:15:39;100263.67;;;18.25;70.38
35507;BME280;36461;52.018;21.036;2023-06-10T01:18:09;100265.98;;;18.22;70.38
35507;BME280;36461;52.018;21.036;2023-06-10T01:20:38;100262.39;;;18.18;70.40
35507;BME280;36461;52.018;21.036;2023-06-10T01:23:10;100266.95;;;18.15;70.42
35507;BME280;36461;52.018;21.036;2023-06-10T01:25:41;100264.70;;;18.12;70.38
35507;BME280;36461;52.018;21.036;2023-06-10T01:29:07;100263.34;;;18.08;70.41
35507;BME280;36461;52.018;21.036;2023-06-10T01:31:33;100269.19;;;18.05;70.23
35507;BME280;36461;52.018;21.036;2023-06-10T01:34:07;100267.88;;;18.01;70.31
35507;BME280;36461;52.018;21.036;2023-06-10T01:36:37;100264.70;;;17.96;70.29
35507;BME280;36461;52.018;21.036;2023-06-10T01:39:10;100268.38;;;17.93;70.14
35507;BME280;36461;52.018;21.036;2023-06-10T01:41:42;100272.43;;;17.89;70.08
35507;BME280;36461;52.018;21.036;2023-06-10T01:44:10;100272.58;;;17.87;70.06
35507;BME280;36461;52.018;21.036;2023-06-10T01:46:40;100271.13;;;17.85;69.96
35507;BME280;36461;52.018;21.036;2023-06-10T01:49:08;100273.58;;;17.83;69.87
35507;BME280;36461;52.018;21.036;2023-06-10T01:51:36;100275.25;;;17.81;69.85
35507;BME280;36461;52.018;21.036;2023-06-10T01:54:05;100280.42;;;17.80;69.54
35507;BME280;36461;52.018;21.036;2023-06-10T01:56:34;100280.99;;;17.79;69.30
35507;BME280;36461;52.018;21.036;2023-06-10T01:59:02;100282.07;;;17.76;69.09
35507;BME280;36461;52.018;21.036;2023-06-10T02:01:30;100279.73;;;17.74;68.95
35507;BME280;36461;52.018;21.036;2023-06-10T02:03:59;100281.19;;;17.70;68.69
35507;BME280;36461;52.018;21.036;2023-06-10T02:06:27;100282.21;;;17.68;68.47
35507;BME280;36461;52.018;21.036;2023-06-10T02:08:56;100275.54;;;17.66;68.23
35507;BME280;36461;52.018;21.036;2023-06-10T02:11:24;100277.13;;;17.63;67.89
35507;BME280;36461;52.018;21.036;2023-06-10T02:13:52;100277.98;;;17.60;67.61
35507;BME280;36461;52.018;21.036;2023-06-10T02:16:21;100279.83;;;17.58;67.40
35507;BME280;36461;52.018;21.036;2023-06-10T02:18:49;100282.04;;;17.57;67.27
35507;BME280;36461;52.018;21.036;2023-06-10T02:21:17;100288.75;;;17.56;67.00
35507;BME280;36461;52.018;21.036;2023-06-10T02:23:46;100287.25;;;17.54;66.82
35507;BME280;36461;52.018;21.036;2023-06-10T02:26:14;100285.45;;;17.53;66.83
35507;BME280;36461;52.018;21.036;2023-06-10T02:28:43;100289.71;;;17.52;66.81
35507;BME280;36461;52.018;21.036;2023-06-10T02:31:13;100293.06;;;17.51;66.71
35507;BME280;36461;52.018;21.036;2023-06-10T02:33:42;100296.42;;;17.50;66.47
35507;BME280;36461;52.018;21.036;2023-06-10T02:36:10;100298.84;;;17.51;66.43
35507;BME280;36461;52.018;21.036;2023-06-10T02:38:43;100304.63;;;17.51;66.30
35507;BME280;36461;52.018;21.036;2023-06-10T02:41:11;100306.30;;;17.49;66.14
35507;BME280;36461;52.018;21.036;2023-06-10T02:43:41;100309.88;;;17.48;65.84
35507;BME280;36461;52.018;21.036;2023-06-10T02:46:10;100309.46;;;17.46;65.62
35507;BME280;36461;52.018;21.036;2023-06-10T02:48:43;100312.73;;;17.44;65.30
35507;BME280;36461;52.018;21.036;2023-06-10T02:51:19;100316.67;;;17.43;64.99
35507;BME280;36461;52.018;21.036;2023-06-10T02:53:50;100313.23;;;17.42;64.72
35507;BME280;36461;52.018;21.036;2023-06-10T02:56:19;100313.50;;;17.40;64.51
35507;BME280;36461;52.018;21.036;2023-06-10T02:58:48;100320.34;;;17.40;64.14
35507;BME280;36461;52.018;21.036;2023-06-10T03:01:17;100319.11;;;17.40;63.66
35507;BME280;36461;52.018;21.036;2023-06-10T03:03:53;100319.52;;;17.39;63.45
35507;BME280;36461;52.018;21.036;2023-06-10T03:06:24;100327.29;;;17.41;63.23
35507;BME280;36461;52.018;21.036;2023-06-10T03:08:54;100325.13;;;17.42;62.93
35507;BME280;36461;52.018;21.036;2023-06-10T03:11:23;100328.09;;;17.42;62.24
35507;BME280;36461;52.018;21.036;2023-06-10T03:13:51;100333.93;;;17.44;62.07
35507;BME280;36461;52.018;21.036;2023-06-10T03:16:22;100338.09;;;17.44;61.73
35507;BME280;36461;52.018;21.036;2023-06-10T03:18:52;100344.56;;;17.47;61.64
35507;BME280;36461;52.018;21.036;2023-06-10T03:21:20;100343.23;;;17.49;61.36
35507;BME280;36461;52.018;21.036;2023-06-10T03:23:49;100347.61;;;17.52;61.05
35507;BME280;36461;52.018;21.036;2023-06-10T03:26:17;100348.92;;;17.56;60.70
35507;BME280;36461;52.018;21.036;2023-06-10T03:28:50;100346.15;;;17.58;60.48
35507;BME280;36461;52.018;21.036;2023-06-10T03:31:19;100347.70;;;17.62;60.40
35507;BME280;36461;52.018;21.036;2023-06-10T03:33:48;100352.98;;;17.67;60.13
35507;BME280;36461;52.018;21.036;2023-06-10T03:36:16;100354.20;;;17.73;59.76
35507;BME280;36461;52.018;21.036;2023-06-10T03:38:45;100354.59;;;17.77;59.57
35507;BME280;36461;52.018;21.036;2023-06-10T03:41:13;100350.03;;;17.83;59.53
35507;BME280;36461;52.018;21.036;2023-06-10T03:43:41;100355.17;;;17.88;58.98
35507;BME280;36461;52.018;21.036;2023-06-10T03:46:10;100356.69;;;17.92;59.04
35507;BME280;36461;52.018;21.036;2023-06-10T03:48:38;100363.63;;;17.99;58.86
35507;BME280;36461;52.018;21.036;2023-06-10T03:51:07;100363.96;;;18.04;58.58
35507;BME280;36461;52.018;21.036;2023-06-10T03:53:35;100365.63;;;18.09;58.26
35507;BME280;36461;52.018;21.036;2023-06-10T03:56:04;100364.27;;;18.13;58.10
35507;BME280;36461;52.018;21.036;2023-06-10T03:58:33;100360.86;;;18.20;58.03
35507;BME280;36461;52.018;21.036;2023-06-10T04:01:01;100364.48;;;18.29;57.95
35507;BME280;36461;52.018;21.036;2023-06-10T04:03:33;100365.89;;;18.46;57.79
35507;BME280;36461;52.018;21.036;2023-06-10T04:06:02;100366.90;;;18.62;57.43
35507;BME280;36461;52.018;21.036;2023-06-10T04:08:31;100366.02;;;18.81;57.43
35507;BME280;36461;52.018;21.036;2023-06-10T04:11:00;100364.73;;;18.98;57.08
35507;BME280;36461;52.018;21.036;2023-06-10T04:13:29;100364.98;;;19.17;56.89
35507;BME280;36461;52.018;21.036;2023-06-10T04:15:59;100360.61;;;19.37;56.67
35507;BME280;36461;52.018;21.036;2023-06-10T04:18:27;100365.81;;;19.43;55.84
35507;BME280;36461;52.018;21.036;2023-06-10T04:20:58;100361.11;;;19.51;56.01
35507;BME280;36461;52.018;21.036;2023-06-10T04:31:01;100357.41;;;20.13;55.30
35507;BME280;36461;52.018;21.036;2023-06-10T04:33:30;100356.85;;;20.31;54.73
35507;BME280;36461;52.018;21.036;2023-06-10T04:36:01;100355.30;;;20.42;54.50
35507;BME280;36461;52.018;21.036;2023-06-10T04:38:30;100351.74;;;20.52;54.30
35507;BME280;36461;52.018;21.036;2023-06-10T04:40:59;100353.86;;;20.62;54.01
35507;BME280;36461;52.018;21.036;2023-06-10T04:43:29;100355.23;;;20.67;53.89
35507;BME280;36461;52.018;21.036;2023-06-10T04:45:59;100357.81;;;20.65;53.58
35507;BME280;36461;52.018;21.036;2023-06-10T04:48:29;100360.69;;;20.62;53.61
35507;BME280;36461;52.018;21.036;2023-06-10T04:50:58;100365.45;;;20.57;53.29
35507;BME280;36461;52.018;21.036;2023-06-10T04:53:27;100368.20;;;20.39;53.40
35507;BME280;36461;52.018;21.036;2023-06-10T04:55:56;100371.11;;;20.20;53.68
35507;BME280;36461;52.018;21.036;2023-06-10T04:58:25;100377.16;;;20.07;53.67
35507;BME280;36461;52.018;21.036;2023-06-10T05:00:54;100381.13;;;19.93;53.82
35507;BME280;36461;52.018;21.036;2023-06-10T05:03:22;100381.65;;;19.81;54.07
35507;BME280;36461;52.018;21.036;2023-06-10T05:05:50;100384.11;;;19.78;54.53
35507;BME280;36461;52.018;21.036;2023-06-10T05:08:20;100379.73;;;19.94;54.90
35507;BME280;36461;52.018;21.036;2023-06-10T05:10:48;100375.46;;;20.23;55.22
35507;BME280;36461;52.018;21.036;2023-06-10T05:13:16;100379.86;;;20.23;54.26
35507;BME280;36461;52.018;21.036;2023-06-10T05:15:45;100384.63;;;20.06;54.01
35507;BME280;36461;52.018;21.036;2023-06-10T05:18:14;100387.52;;;19.98;54.52
35507;BME280;36461;52.018;21.036;2023-06-10T05:20:42;100385.98;;;19.94;54.84
35507;BME280;36461;52.018;21.036;2023-06-10T05:23:11;100386.28;;;19.97;54.90
35507;BME280;36461;52.018;21.036;2023-06-10T05:25:39;100392.50;;;19.99;54.81
35507;BME280;36461;52.018;21.036;2023-06-10T05:28:08;100390.38;;;20.38;55.01
35507;BME280;36461;52.018;21.036;2023-06-10T05:30:42;100399.88;;;20.67;54.59
35507;BME280;36461;52.018;21.036;2023-06-10T05:33:11;100393.20;;;20.65;54.04
35507;BME280;36461;52.018;21.036;2023-06-10T05:35:39;100392.63;;;20.65;53.87
35507;BME280;36461;52.018;21.036;2023-06-10T05:45:48;100392.92;;;20.58;53.58
35507;BME280;36461;52.018;21.036;2023-06-10T05:48:16;100394.05;;;20.57;53.36
35507;BME280;36461;52.018;21.036;2023-06-10T05:50:45;100395.41;;;20.56;53.38
35507;BME280;36461;52.018;21.036;2023-06-10T05:53:16;100395.98;;;20.57;53.27
35507;BME280;36461;52.018;21.036;2023-06-10T05:55:45;100396.77;;;20.59;53.32
35507;BME280;36461;52.018;21.036;2023-06-10T05:58:13;100397.39;;;20.60;53.13
35507;BME280;36461;52.018;21.036;2023-06-10T06:00:42;100397.27;;;20.59;53.32
35507;BME280;36461;52.018;21.036;2023-06-10T06:03:10;100397.27;;;20.66;53.51
35507;BME280;36461;52.018;21.036;2023-06-10T06:05:39;100394.59;;;20.72;53.33
35507;BME280;36461;52.018;21.036;2023-06-10T06:08:09;100396.91;;;20.74;53.17
35507;BME280;36461;52.018;21.036;2023-06-10T06:10:45;100397.23;;;20.79;53.08
35507;BME280;36461;52.018;21.036;2023-06-10T06:13:15;100392.99;;;20.79;52.85
35507;BME280;36461;52.018;21.036;2023-06-10T06:15:44;100392.59;;;20.80;52.91
35507;BME280;36461;52.018;21.036;2023-06-10T06:18:12;100390.17;;;20.87;52.97
35507;BME280;36461;52.018;21.036;2023-06-10T06:20:40;100388.02;;;20.96;52.86
35507;BME280;36461;52.018;21.036;2023-06-10T06:23:09;100385.59;;;21.08;52.69
35507;BME280;36461;52.018;21.036;2023-06-10T06:25:38;100392.20;;;21.13;52.77
35507;BME280;36461;52.018;21.036;2023-06-10T06:28:07;100393.70;;;21.17;52.58
35507;BME280;36461;52.018;21.036;2023-06-10T06:30:36;100390.42;;;21.23;52.60
35507;BME280;36461;52.018;21.036;2023-06-10T06:33:05;100392.67;;;21.37;52.66
35507;BME280;36461;52.018;21.036;2023-06-10T06:35:33;100390.39;;;21.46;52.58
35507;BME280;36461;52.018;21.036;2023-06-10T06:38:02;100389.05;;;21.48;52.54
35507;BME280;36461;52.018;21.036;2023-06-10T06:40:32;100385.88;;;21.50;52.59
35507;BME280;36461;52.018;21.036;2023-06-10T06:43:00;100390.80;;;21.53;52.57
35507;BME280;36461;52.018;21.036;2023-06-10T06:45:57;100387.80;;;21.59;52.79
35507;BME280;36461;52.018;21.036;2023-06-10T06:48:25;100390.45;;;21.64;52.66
35507;BME280;36461;52.018;21.036;2023-06-10T06:50:54;100395.24;;;21.63;52.51
35507;BME280;36461;52.018;21.036;2023-06-10T06:53:24;100397.05;;;21.60;52.69
35507;BME280;36461;52.018;21.036;2023-06-10T06:55:52;100396.28;;;21.61;52.75
35507;BME280;36461;52.018;21.036;2023-06-10T06:58:21;100401.13;;;21.60;52.89
35507;BME280;36461;52.018;21.036;2023-06-10T07:00:49;100400.70;;;21.61;52.82
35507;BME280;36461;52.018;21.036;2023-06-10T07:03:17;100402.10;;;21.66;53.16
35507;BME280;36461;52.018;21.036;2023-06-10T07:05:45;100402.02;;;21.71;52.99
35507;BME280;36461;52.018;21.036;2023-06-10T07:08:13;100397.23;;;21.74;52.58
35507;BME280;36461;52.018;21.036;2023-06-10T07:10:42;100396.39;;;21.75;52.63
35507;BME280;36461;52.018;21.036;2023-06-10T07:13:10;100398.45;;;21.83;52.99
35507;BME280;36461;52.018;21.036;2023-06-10T07:15:41;100399.40;;;21.91;52.73
35507;BME280;36461;52.018;21.036;2023-06-10T07:18:09;100401.89;;;21.97;52.57
35507;BME280;36461;52.018;21.036;2023-06-10T07:20:37;100402.33;;;22.01;51.98
35507;BME280;36461;52.018;21.036;2023-06-10T07:23:05;100403.17;;;22.04;51.95
35507;BME280;36461;52.018;21.036;2023-06-10T07:25:33;100398.49;;;22.09;51.52
35507;BME280;36461;52.018;21.036;2023-06-10T07:28:01;100398.66;;;22.11;51.55
35507;BME280;36461;52.018;21.036;2023-06-10T07:30:29;100398.44;;;22.17;51.20
35507;BME280;36461;52.018;21.036;2023-06-10T07:32:57;100403.66;;;22.21;50.92
35507;BME280;36461;52.018;21.036;2023-06-10T07:35:25;100400.91;;;22.27;50.75
35507;BME280;36461;52.018;21.036;2023-06-10T07:37:53;100404.25;;;22.32;50.09
35507;BME280;36461;52.018;21.036;2023-06-10T07:40:21;100406.21;;;22.36;50.17
35507;BME280;36461;52.018;21.036;2023-06-10T07:42:49;100412.45;;;22.42;50.34
35507;BME280;36461;52.018;21.036;2023-06-10T07:45:17;100407.92;;;22.45;50.21
35507;BME280;36461;52.018;21.036;2023-06-10T07:47:45;100413.09;;;22.49;50.37
35507;BME280;36461;52.018;21.036;2023-06-10T07:54:48;100414.27;;;22.69;50.29
35507;BME280;36461;52.018;21.036;2023-06-10T07:57:18;100418.04;;;22.79;49.57
35507;BME280;36461;52.018;21.036;2023-06-10T07:59:47;100416.48;;;22.83;49.53
35507;BME280;36461;52.018;21.036;2023-06-10T08:02:15;100417.73;;;22.91;49.55
35507;BME280;36461;52.018;21.036;2023-06-10T08:04:43;100420.11;;;23.01;48.68
35507;BME280;36461;52.018;21.036;2023-06-10T08:07:11;100420.60;;;23.06;48.46
35507;BME280;36461;52.018;21.036;2023-06-10T08:09:38;100422.88;;;23.12;48.67
35507;BME280;36461;52.018;21.036;2023-06-10T08:12:07;100426.60;;;23.21;48.74
35507;BME280;36461;52.018;21.036;2023-06-10T08:14:37;100427.52;;;23.26;48.38
35507;BME280;36461;52.018;21.036;2023-06-10T08:17:06;100425.50;;;23.27;47.55
35507;BME280;36461;52.018;21.036;2023-06-10T08:19:34;100431.58;;;23.33;47.74
35507;BME280;36461;52.018;21.036;2023-06-10T08:22:02;100432.08;;;23.37;46.63
35507;BME280;36461;52.018;21.036;2023-06-10T08:24:30;100428.41;;;23.41;46.16
35507;BME280;36461;52.018;21.036;2023-06-10T08:26:58;100424.79;;;23.54;46.52
35507;BME280;36461;52.018;21.036;2023-06-10T08:29:26;100424.83;;;23.66;46.01
35507;BME280;36461;52.018;21.036;2023-06-10T08:31:55;100424.63;;;23.77;45.40
35507;BME280;36461;52.018;21.036;2023-06-10T08:34:23;100427.97;;;23.85;44.70
35507;BME280;36461;52.018;21.036;2023-06-10T08:36:51;100427.47;;;23.93;44.95
35507;BME280;36461;52.018;21.036;2023-06-10T08:39:22;100429.23;;;24.03;44.43
35507;BME280;36461;52.018;21.036;2023-06-10T08:42:23;100424.67;;;24.13;44.75
35507;BME280;36461;52.018;21.036;2023-06-10T08:44:54;100421.30;;;24.19;44.38
35507;BME280;36461;52.018;21.036;2023-06-10T08:47:30;100426.40;;;24.29;44.12
35507;BME280;36461;52.018;21.036;2023-06-10T08:50:04;100431.66;;;24.34;42.69
35507;BME280;36461;52.018;21.036;2023-06-10T08:52:36;100430.09;;;24.38;42.36
35507;BME280;36461;52.018;21.036;2023-06-10T08:55:19;100434.15;;;24.44;42.11
35507;BME280;36461;52.018;21.036;2023-06-10T08:57:50;100424.60;;;24.50;41.58
35507;BME280;36461;52.018;21.036;2023-06-10T09:00:18;100428.12;;;24.55;42.07
35507;BME280;36461;52.018;21.036;2023-06-10T09:02:46;100428.93;;;24.60;42.08
35507;BME280;36461;52.018;21.036;2023-06-10T09:05:15;100432.29;;;24.71;42.24
35507;BME280;36461;52.018;21.036;2023-06-10T09:07:43;100428.37;;;24.78;42.05
35507;BME280;36461;52.018;21.036;2023-06-10T09:10:12;100427.04;;;24.87;42.38
35507;BME280;36461;52.018;21.036;2023-06-10T09:12:40;100425.33;;;25.00;42.08
35507;BME280;36461;52.018;21.036;2023-06-10T09:15:08;100422.83;;;25.08;41.68
35507;BME280;36461;52.018;21.036;2023-06-10T09:17:36;100429.81;;;25.19;42.11
35507;BME280;36461;52.018;21.036;2023-06-10T09:20:08;100435.91;;;25.29;41.43
35507;BME280;36461;52.018;21.036;2023-06-10T09:22:38;100426.91;;;25.29;41.51
35507;BME280;36461;52.018;21.036;2023-06-10T09:25:08;100434.55;;;25.31;41.28
35507;BME280;36461;52.018;21.036;2023-06-10T09:27:51;100438.05;;;25.35;41.17
35507;BME280;36461;52.018;21.036;2023-06-10T09:30:32;100440.27;;;25.44;40.99
35507;BME280;36461;52.018;21.036;2023-06-10T09:33:02;100438.85;;;25.42;40.38
35507;BME280;36461;52.018;21.036;2023-06-10T09:35:30;100436.59;;;25.38;40.34
35507;BME280;36461;52.018;21.036;2023-06-10T09:38:00;100438.17;;;25.30;40.21
35507;BME280;36461;52.018;21.036;2023-06-10T09:40:28;100430.17;;;25.28;40.44
35507;BME280;36461;52.018;21.036;2023-06-10T09:42:59;100435.22;;;25.31;40.89
35507;BME280;36461;52.018;21.036;2023-06-10T09:45:30;100436.45;;;25.37;40.78
35507;BME280;36461;52.018;21.036;2023-06-10T09:48:00;100435.79;;;25.37;40.62
35507;BME280;36461;52.018;21.036;2023-06-10T09:50:32;100436.21;;;25.42;41.04
35507;BME280;36461;52.018;21.036;2023-06-10T09:53:01;100442.61;;;25.45;40.52
35507;BME280;36461;52.018;21.036;2023-06-10T09:55:33;100437.40;;;25.39;40.14
35507;BME280;36461;52.018;21.036;2023-06-10T09:58:01;100438.25;;;25.37;40.12
35507;BME280;36461;52.018;21.036;2023-06-10T10:00:32;100440.10;;;25.42;39.74
35507;BME280;36461;52.018;21.036;2023-06-10T10:03:00;100433.30;;;25.46;39.56
35507;BME280;36461;52.018;21.036;2023-06-10T10:05:29;100430.46;;;25.54;39.59
35507;BME280;36461;52.018;21.036;2023-06-10T10:07:58;100424.30;;;25.65;39.30
35507;BME280;36461;52.018;21.036;2023-06-10T10:10:26;100434.74;;;25.67;38.50
35507;BME280;36461;52.018;21.036;2023-06-10T10:17:27;100422.83;;;25.78;39.11
35507;BME280;36461;52.018;21.036;2023-06-10T10:20:02;100426.11;;;25.92;38.89
35507;BME280;36461;52.018;21.036;2023-06-10T10:22:41;100428.44;;;26.02;38.26
35507;BME280;36461;52.018;21.036;2023-06-10T10:25:13;100422.69;;;26.09;37.73
35507;BME280;36461;52.018;21.036;2023-06-10T10:27:52;100425.15;;;26.08;36.93
35507;BME280;36461;52.018;21.036;2023-06-10T10:30:23;100424.80;;;26.04;36.51
35507;BME280;36461;52.018;21.036;2023-06-10T10:35:29;100431.28;;;26.01;36.24
35507;BME280;36461;52.018;21.036;2023-06-10T10:37:58;100428.14;;;26.05;36.79
35507;BME280;36461;52.018;21.036;2023-06-10T10:40:28;100428.09;;;26.10;36.69
35507;BME280;36461;52.018;21.036;2023-06-10T10:42:58;100431.13;;;26.12;35.98
35507;BME280;36461;52.018;21.036;2023-06-10T10:45:30;100438.38;;;26.07;34.83
35507;BME280;36461;52.018;21.036;2023-06-10T10:48:04;100440.56;;;25.91;34.57
35507;BME280;36461;52.018;21.036;2023-06-10T10:50:33;100439.08;;;25.84;35.28
35507;BME280;36461;52.018;21.036;2023-06-10T10:53:03;100443.31;;;25.79;35.02
35507;BME280;36461;52.018;21.036;2023-06-10T10:55:32;100442.48;;;25.80;34.79
35507;BME280;36461;52.018;21.036;2023-06-10T10:58:04;100436.71;;;25.83;34.98
35507;BME280;36461;52.018;21.036;2023-06-10T11:00:34;100435.33;;;25.87;35.08
35507;BME280;36461;52.018;21.036;2023-06-10T11:05:42;100434.10;;;25.92;35.87
35507;BME280;36461;52.018;21.036;2023-06-10T11:08:12;100432.98;;;26.00;35.89
35507;BME280;36461;52.018;21.036;2023-06-10T11:10:42;100435.27;;;26.10;35.90
35507;BME280;36461;52.018;21.036;2023-06-10T11:13:20;100429.75;;;26.13;35.88
35507;BME280;36461;52.018;21.036;2023-06-10T11:15:50;100425.55;;;26.13;35.99
35507;BME280;36461;52.018;21.036;2023-06-10T11:18:28;100422.83;;;26.23;36.36
35507;BME280;36461;52.018;21.036;2023-06-10T11:21:03;100423.58;;;26.31;36.38
35507;BME280;36461;52.018;21.036;2023-06-10T11:23:37;100425.14;;;26.28;36.20
35507;BME280;36461;52.018;21.036;2023-06-10T11:26:43;100422.16;;;26.26;36.63
35507;BME280;36461;52.018;21.036;2023-06-10T11:29:08;100426.38;;;26.39;37.17
35507;BME280;36461;52.018;21.036;2023-06-10T11:31:40;100425.05;;;26.47;36.93
35507;BME280;36461;52.018;21.036;2023-06-10T11:34:09;100428.24;;;26.58;37.16
35507;BME280;36461;52.018;21.036;2023-06-10T11:36:40;100434.73;;;26.68;36.96
35507;BME280;36461;52.018;21.036;2023-06-10T11:39:11;100435.59;;;26.72;37.09
35507;BME280;36461;52.018;21.036;2023-06-10T11:41:39;100428.80;;;26.70;37.46
35507;BME280;36461;52.018;21.036;2023-06-10T11:44:09;100434.29;;;26.72;37.50
35507;BME280;36461;52.018;21.036;2023-06-10T11:46:38;100425.56;;;26.76;37.71
35507;BME280;36461;52.018;21.036;2023-06-10T11:49:07;100431.60;;;26.82;37.86
35507;BME280;36461;52.018;21.036;2023-06-10T11:51:37;100428.66;;;26.77;37.92
35507;BME280;36461;52.018;21.036;2023-06-10T11:54:09;100423.70;;;26.72;38.12
35507;BME280;36461;52.018;21.036;2023-06-10T11:56:38;100422.13;;;26.62;38.29
35507;BME280;36461;52.018;21.036;2023-06-10T11:59:07;100421.86;;;26.61;38.62
35507;BME280;36461;52.018;21.036;2023-06-10T12:01:37;100421.89;;;26.63;38.60
35507;BME280;36461;52.018;21.036;2023-06-10T12:04:13;100416.45;;;26.68;38.74
35507;BME280;36461;52.018;21.036;2023-06-10T12:20:08;100416.79;;;27.28;38.75
35507;BME280;36461;52.018;21.036;2023-06-10T12:22:42;100412.84;;;27.42;38.60
35507;BME280;36461;52.018;21.036;2023-06-10T12:25:11;100417.49;;;27.49;38.60
35507;BME280;36461;52.018;21.036;2023-06-10T12:32:15;100417.87;;;27.33;38.61
35507;BME280;36461;52.018;21.036;2023-06-10T12:34:44;100413.91;;;27.09;38.35
35507;BME280;36461;52.018;21.036;2023-06-10T12:37:12;100411.86;;;26.80;38.68
35507;BME280;36461;52.018;21.036;2023-06-10T12:39:51;100404.52;;;26.72;39.13
35507;BME280;36461;52.018;21.036;2023-06-10T12:42:22;100403.75;;;26.78;39.56
35507;BME280;36461;52.018;21.036;2023-06-10T12:44:53;100398.26;;;26.85;39.60
35507;BME280;36461;52.018;21.036;2023-06-10T12:47:29;100400.05;;;26.98;39.75
35507;BME280;36461;52.018;21.036;2023-06-10T12:49:59;100398.09;;;27.07;39.73
35507;BME280;36461;52.018;21.036;2023-06-10T12:52:27;100393.92;;;27.01;39.62
35507;BME280;36461;52.018;21.036;2023-06-10T12:54:56;100396.63;;;26.87;39.61
35507;BME280;36461;52.018;21.036;2023-06-10T12:57:24;100400.52;;;26.84;39.42
35507;BME280;36461;52.018;21.036;2023-06-10T12:59:52;100395.41;;;26.78;39.32
35507;BME280;36461;52.018;21.036;2023-06-10T13:02:21;100394.14;;;26.73;39.54
35507;BME280;36461;52.018;21.036;2023-06-10T13:04:51;100391.52;;;26.61;39.74
35507;BME280;36461;52.018;21.036;2023-06-10T13:07:20;100394.48;;;26.58;39.90
35507;BME280;36461;52.018;21.036;2023-06-10T13:09:51;100393.17;;;26.46;40.13
35507;BME280;36461;52.018;21.036;2023-06-10T13:12:20;100388.14;;;26.36;40.26
35507;BME280;36461;52.018;21.036;2023-06-10T13:15:06;100387.88;;;26.35;40.46
35507;BME280;36461;52.018;21.036;2023-06-10T13:17:38;100385.50;;;26.43;40.81
35507;BME280;36461;52.018;21.036;2023-06-10T13:20:10;100385.75;;;26.55;40.86
35507;BME280;36461;52.018;21.036;2023-06-10T13:22:42;100384.66;;;26.68;40.55
35507;BME280;36461;52.018;21.036;2023-06-10T13:25:14;100379.38;;;26.84;40.42
35507;BME280;36461;52.018;21.036;2023-06-10T13:27:46;100382.87;;;26.91;40.45
35507;BME280;36461;52.018;21.036;2023-06-10T13:30:18;100383.66;;;26.76;40.25
35507;BME280;36461;52.018;21.036;2023-06-10T13:32:50;100385.52;;;26.63;40.23
35507;BME280;36461;52.018;21.036;2023-06-10T13:35:21;100386.64;;;26.50;40.16
35507;BME280;36461;52.018;21.036;2023-06-10T13:37:53;100381.31;;;26.37;39.98
35507;BME280;36461;52.018;21.036;2023-06-10T13:40:24;100373.80;;;26.30;40.28
35507;BME280;36461;52.018;21.036;2023-06-10T13:42:57;100375.23;;;26.34;40.56